Time;durP1;ratioP1;P1;durP2;ratioP2;P2;SDS_P1;SDS_P2;PMS_P1;PMS_P2;Temp;Humidity;BMP_temperature;BMP_pressure;BME280_temperature;BME280_humidity;BME280_pressure;Samples;Min_cycle;Max_cycle;Signal;HPM_P1;HPM_P2
2023/09/25 00:01:37;;;;;;;5.10;1.90;;;;;;;17.08;54.70;100501.31;5042688;28;20780;-69
2023/09/25 00:04:02;;;;;;;1.27;0.73;;;;;;;17.12;54.64;100494.13;5042460;28;20514;-69
2023/09/25 00:06:29;;;;;;;2.58;1.10;;;;;;;17.25;54.54;100493.44;5041351;28;20274;-71
2023/09/25 00:08:54;;;;;;;4.18;1.13;;;;;;;17.24;54.01;100493.75;5042038;28;20104;-70
2023/09/25 00:11:20;;;;;;;2.63;0.90;;;;;;;17.18;54.21;100489.41;5041741;28;20128;-69
2023/09/25 00:13:45;;;;;;;4.73;1.07;;;;;;;17.24;54.33;100491.81;5041485;28;20545;-69
2023/09/25 00:16:15;;;;;;;4.88;1.48;;;;;;;17.19;54.61;100488.31;5041280;28;20262;-69
2023/09/25 00:18:41;;;;;;;5.22;1.17;;;;;;;17.13;54.21;100485.59;5045720;28;20037;-69
2023/09/25 00:21:06;;;;;;;3.40;1.08;;;;;;;17.14;54.29;100484.50;5045658;28;20043;-69
2023/09/25 00:23:32;;;;;;;5.18;1.13;;;;;;;17.18;54.54;100493.00;5044674;28;20476;-69
2023/09/25 00:26:04;;;;;;;1.83;1.02;;;;;;;17.22;54.40;100484.94;5045172;28;20069;-70
2023/09/25 00:28:31;;;;;;;3.72;1.27;;;;;;;17.34;53.95;100485.38;5045633;28;20033;-70
2023/09/25 00:30:56;;;;;;;3.70;1.13;;;;;;;17.34;54.01;100488.13;5044275;28;20040;-70
2023/09/25 00:33:21;;;;;;;2.25;1.30;;;;;;;17.41;54.07;100487.75;5045300;28;20045;-70
2023/09/25 00:35:47;;;;;;;2.63;1.00;;;;;;;17.37;54.35;100490.28;5044403;28;20154;-70
2023/09/25 00:38:13;;;;;;;1.55;0.93;;;;;;;17.34;53.97;100499.16;5045332;28;20246;-70
2023/09/25 00:40:38;;;;;;;1.38;0.88;;;;;;;17.22;54.36;100491.28;5045234;28;20021;-72
2023/09/25 00:43:04;;;;;;;2.90;1.05;;;;;;;17.06;54.73;100481.50;5044876;28;20052;-70
2023/09/25 00:45:30;;;;;;;2.55;0.95;;;;;;;17.07;54.72;100461.94;5044654;28;20480;-70
2023/09/25 00:47:55;;;;;;;5.25;1.13;;;;;;;17.21;54.69;100469.53;5044670;28;20068;-69
2023/09/25 00:50:21;;;;;;;3.80;1.25;;;;;;;17.18;54.62;100465.44;5045144;28;20033;-70
2023/09/25 00:52:47;;;;;;;1.70;0.90;;;;;;;17.12;54.60;100463.81;5044617;28;20061;-70
2023/09/25 00:55:13;;;;;;;3.00;1.27;;;;;;;17.07;54.97;100459.19;5044565;28;20377;-70
2023/09/25 00:57:39;;;;;;;4.75;1.15;;;;;;;17.01;54.89;100465.84;5045179;28;20098;-75
2023/09/25 01:00:05;;;;;;;3.35;1.42;;;;;;;16.99;55.10;100463.41;5045007;28;20017;-75
2023/09/25 01:02:31;;;;;;;2.30;0.88;;;;;;;17.00;54.71;100465.03;5044842;28;20593;-75
2023/09/25 01:05:08;;;;;;;5.10;1.00;;;;;;;17.01;54.79;100465.84;5044001;28;20415;-76
2023/09/25 01:07:34;;;;;;;2.80;0.95;;;;;;;16.98;55.00;100474.72;5045116;28;20528;-75
2023/09/25 01:10:03;;;;;;;3.42;1.10;;;;;;;16.96;54.70;100482.44;5044919;28;20071;-75
2023/09/25 01:12:28;;;;;;;2.38;1.35;;;;;;;17.10;54.90;100486.16;5044301;28;20115;-76
2023/09/25 01:14:54;;;;;;;2.03;0.93;;;;;;;17.16;54.52;100484.19;5044465;28;20115;-76
2023/09/25 01:17:20;;;;;;;2.30;1.00;;;;;;;17.22;54.34;100480.28;5044313;28;20643;-76
2023/09/25 01:19:45;;;;;;;2.75;1.20;;;;;;;17.24;53.96;100483.56;5044776;28;20687;-76
2023/09/25 01:22:11;;;;;;;2.65;1.40;;;;;;;17.32;54.08;100490.34;5044082;28;20033;-75
2023/09/25 01:24:36;;;;;;;2.13;1.17;;;;;;;17.29;54.17;100477.16;5044489;28;20088;-76
2023/09/25 01:27:01;;;;;;;2.88;1.08;;;;;;;17.35;53.76;100480.69;5044627;28;20273;-75
2023/09/25 01:29:26;;;;;;;4.23;1.67;;;;;;;17.31;53.62;100471.38;5044422;28;20037;-75
2023/09/25 01:31:52;;;;;;;3.63;1.50;;;;;;;17.25;53.60;100473.34;5044419;28;20254;-76
2023/09/25 01:34:17;;;;;;;2.70;1.40;;;;;;;17.33;53.53;100471.91;5043995;28;20285;-77
2023/09/25 01:36:42;;;;;;;3.43;1.47;;;;;;;17.33;53.42;100471.91;5044026;28;20675;-76
2023/09/25 01:39:08;;;;;;;2.50;1.00;;;;;;;17.29;53.32;100479.91;5044311;28;20408;-76
2023/09/25 01:41:33;;;;;;;9.50;1.85;;;;;;;17.35;53.52;100475.19;5044054;28;20268;-76
2023/09/25 01:43:58;;;;;;;2.43;1.20;;;;;;;17.32;53.41;100468.31;5043618;28;20041;-75
2023/09/25 01:46:23;;;;;;;2.30;0.80;;;;;;;17.25;53.40;100468.66;5043960;28;20783;-76
2023/09/25 01:48:49;;;;;;;4.87;1.37;;;;;;;17.31;53.39;100474.91;5044192;28;20262;-77
2023/09/25 01:51:14;;;;;;;1.73;0.80;;;;;;;17.37;53.34;100473.75;5043567;28;20763;-76
2023/09/25 01:53:39;;;;;;;3.30;1.00;;;;;;;17.41;53.30;100473.19;5043527;28;20277;-76
2023/09/25 01:56:12;;;;;;;2.63;1.10;;;;;;;17.42;53.48;100478.38;5043975;28;20037;-76
2023/09/25 01:58:39;;;;;;;2.15;1.23;;;;;;;17.37;53.29;100484.78;5043329;28;20773;-76
2023/09/25 02:01:05;;;;;;;5.10;1.58;;;;;;;17.43;53.16;100487.47;5042891;28;20041;-76
2023/09/25 02:03:30;;;;;;;2.70;1.25;;;;;;;17.38;53.09;100486.44;5043082;28;20098;-76
2023/09/25 02:05:56;;;;;;;11.37;2.37;;;;;;;17.44;52.80;100486.34;5042931;28;20110;-77
2023/09/25 02:08:22;;;;;;;3.45;1.25;;;;;;;17.50;52.70;100482.44;5044103;28;20348;-76
2023/09/25 02:10:47;;;;;;;1.95;1.15;;;;;;;17.51;52.94;100486.84;5044286;28;20033;-77
2023/09/25 02:13:12;;;;;;;2.13;0.93;;;;;;;17.47;53.02;100494.06;5043426;28;20044;-76
2023/09/25 02:15:37;;;;;;;1.77;1.07;;;;;;;17.48;53.01;100495.69;5043291;28;20258;-76
2023/09/25 02:18:05;;;;;;;2.07;0.80;;;;;;;17.48;52.59;100490.16;5041984;28;20270;-77
2023/09/25 02:20:31;;;;;;;3.90;1.48;;;;;;;17.44;52.84;100480.84;5043308;28;20262;-77
2023/09/25 02:22:56;;;;;;;2.07;1.10;;;;;;;17.41;53.44;100484.19;5043441;28;20044;-76
2023/09/25 02:25:21;;;;;;;1.63;0.77;;;;;;;17.43;53.02;100482.78;5043183;28;20782;-77
2023/09/25 02:27:46;;;;;;;2.90;1.17;;;;;;;17.29;52.88;100482.66;5043344;28;20269;-76
2023/09/25 02:30:12;;;;;;;4.53;1.05;;;;;;;17.27;52.75;100479.38;5043457;28;20040;-76
2023/09/25 02:32:38;;;;;;;1.95;0.82;;;;;;;17.32;53.12;100487.59;5043029;28;20043;-76
2023/09/25 02:35:05;;;;;;;1.58;0.82;;;;;;;17.24;53.49;100483.56;5043312;28;20028;-76
2023/09/25 02:37:33;;;;;;;2.53;1.23;;;;;;;17.28;53.24;100486.53;5042737;28;20116;-75
2023/09/25 02:39:58;;;;;;;1.88;0.88;;;;;;;17.26;53.03;100486.00;5042167;28;20249;-76
2023/09/25 02:42:24;;;;;;;2.45;0.93;;;;;;;17.24;53.46;100485.47;5043578;28;20068;-76
2023/09/25 02:44:49;;;;;;;1.83;1.00;;;;;;;17.24;53.36;100485.47;5042758;28;20033;-76
2023/09/25 02:47:14;;;;;;;1.60;0.93;;;;;;;17.28;52.98;100492.06;5043119;28;20250;-77
2023/09/25 02:49:40;;;;;;;3.22;1.50;;;;;;;17.25;53.07;100481.59;5043278;28;20284;-76
2023/09/25 02:52:05;;;;;;;6.03;1.38;;;;;;;17.22;53.21;100490.47;5042987;28;20033;-76
2023/09/25 02:54:31;;;;;;;4.25;1.10;;;;;;;17.19;53.23;100489.09;5040492;28;20942;-76
2023/09/25 02:56:56;;;;;;;2.08;1.05;;;;;;;17.26;53.16;100491.53;5041652;28;20088;-76
2023/09/25 02:59:21;;;;;;;3.55;1.45;;;;;;;17.29;53.41;100490.94;5043063;28;20041;-76
2023/09/25 03:01:46;;;;;;;4.00;1.15;;;;;;;17.24;53.43;100502.84;5042927;28;20044;-77
2023/09/25 03:04:12;;;;;;;4.50;1.15;;;;;;;17.28;53.34;100505.81;5042984;28;20032;-76
2023/09/25 03:06:37;;;;;;;3.33;1.08;;;;;;;17.21;53.44;100500.66;5042457;28;20045;-76
2023/09/25 03:09:03;;;;;;;4.43;1.60;;;;;;;17.19;53.63;100511.16;5042862;28;20127;-76
2023/09/25 03:11:30;;;;;;;4.82;0.90;;;;;;;17.19;53.48;100515.84;5042139;28;20289;-76
2023/09/25 03:13:55;;;;;;;3.53;1.27;;;;;;;17.20;53.50;100512.81;5042741;28;20025;-76
2023/09/25 03:16:21;;;;;;;3.45;1.90;;;;;;;17.22;53.31;100505.06;5042826;28;20037;-76
2023/09/25 03:18:46;;;;;;;2.00;0.83;;;;;;;17.23;53.61;100512.22;5042821;28;20456;-77
2023/09/25 03:21:13;;;;;;;4.68;1.52;;;;;;;17.21;53.66;100514.44;5042934;28;20261;-76
2023/09/25 03:23:39;;;;;;;2.92;1.20;;;;;;;17.13;53.70;100524.16;5042025;28;20033;-77
2023/09/25 03:26:13;;;;;;;3.65;1.05;;;;;;;17.15;53.39;100518.34;5042509;28;20114;-76
2023/09/25 03:28:38;;;;;;;1.85;1.00;;;;;;;17.18;54.07;100525.22;5042784;28;20029;-76
2023/09/25 03:31:03;;;;;;;2.43;1.33;;;;;;;17.17;53.91;100526.34;5042807;28;20106;-76
2023/09/25 03:33:28;;;;;;;4.97;1.17;;;;;;;17.19;54.04;100524.13;5041912;28;20281;-76
2023/09/25 03:35:54;;;;;;;2.93;1.50;;;;;;;17.06;54.34;100520.91;5042619;28;20286;-77
2023/09/25 03:38:19;;;;;;;3.22;1.20;;;;;;;16.95;54.83;100533.09;5042887;28;20385;-77
2023/09/25 03:40:44;;;;;;;5.50;1.30;;;;;;;16.73;55.80;100524.22;5042482;28;20299;-76
2023/09/25 03:43:09;;;;;;;2.60;1.10;;;;;;;16.72;55.68;100522.56;5042198;28;20289;-76
2023/09/25 03:45:35;;;;;;;4.13;1.20;;;;;;;16.80;55.49;100521.16;5042095;28;20254;-76
2023/09/25 03:48:00;;;;;;;3.08;1.40;;;;;;;16.77;56.04;100532.72;5042853;28;20266;-76
2023/09/25 03:50:25;;;;;;;3.63;1.50;;;;;;;16.58;56.13;100538.91;5042157;28;20037;-76
2023/09/25 03:52:50;;;;;;;4.25;1.35;;;;;;;16.47;56.32;100538.19;5046414;28;20818;-76
2023/09/25 03:55:16;;;;;;;1.87;1.20;;;;;;;16.39;57.16;100539.63;5046065;28;20040;-76
2023/09/25 03:57:41;;;;;;;3.47;1.65;;;;;;;16.47;56.99;100540.09;5046963;28;20056;-76
2023/09/25 04:00:07;;;;;;;5.22;1.60;;;;;;;16.64;56.47;100535.00;5045735;28;20063;-77
2023/09/25 04:02:32;;;;;;;3.72;1.35;;;;;;;16.74;56.05;100538.81;5046295;28;20047;-76
2023/09/25 04:04:58;;;;;;;3.08;1.23;;;;;;;16.64;56.23;100539.69;5045661;28;20864;-78
2023/09/25 04:07:23;;;;;;;3.17;1.10;;;;;;;16.40;57.04;100540.41;5046128;28;20033;-77
2023/09/25 04:09:48;;;;;;;4.20;1.77;;;;;;;16.35;57.35;100555.03;5046460;28;20633;-76
2023/09/25 04:12:14;;;;;;;2.70;1.33;;;;;;;16.32;57.25;100547.34;5044592;28;20049;-76
2023/09/25 04:14:41;;;;;;;3.05;1.30;;;;;;;16.26;57.60;100545.72;5045999;28;20341;-76
2023/09/25 04:17:08;;;;;;;4.32;1.40;;;;;;;16.18;57.79;100556.22;5046107;28;20197;-77
2023/09/25 04:19:33;;;;;;;2.30;1.30;;;;;;;16.25;57.64;100555.09;5045417;28;20083;-76
2023/09/25 04:21:59;;;;;;;3.47;1.52;;;;;;;16.38;57.34;100548.97;5045674;28;20123;-75
2023/09/25 04:24:25;;;;;;;6.55;1.30;;;;;;;16.25;57.76;100552.34;5044905;28;20044;-76
2023/09/25 04:26:50;;;;;;;4.15;1.60;;;;;;;16.10;58.01;100554.06;5045669;28;20040;-78
2023/09/25 04:29:17;;;;;;;3.00;1.25;;;;;;;16.14;58.15;100546.91;5046052;28;20036;-76
2023/09/25 04:31:46;;;;;;;2.88;1.30;;;;;;;16.12;58.23;100549.13;5045896;28;20558;-76
2023/09/25 04:34:11;;;;;;;4.90;1.52;;;;;;;16.08;58.13;100545.28;5045909;28;20631;-78
2023/09/25 04:36:37;;;;;;;1.92;1.30;;;;;;;16.13;58.17;100548.00;5045681;28;20040;-76
2023/09/25 04:39:03;;;;;;;2.67;1.48;;;;;;;16.30;57.98;100544.06;5046366;28;20056;-76
2023/09/25 04:41:28;;;;;;;2.67;1.48;;;;;;;16.40;57.51;100551.41;5045823;28;20810;-76
2023/09/25 04:43:53;;;;;;;2.10;1.03;;;;;;;16.53;56.84;100550.81;5045760;28;20044;-75
2023/09/25 04:46:18;;;;;;;3.30;1.57;;;;;;;16.54;56.71;100549.69;5046123;28;20607;-76
2023/09/25 04:48:44;;;;;;;2.03;0.90;;;;;;;16.59;56.32;100562.59;5045932;28;20266;-75
2023/09/25 04:51:09;;;;;;;3.17;1.50;;;;;;;16.67;56.20;100550.97;5045885;28;20140;-76
2023/09/25 04:53:34;;;;;;;8.53;1.57;;;;;;;16.71;56.26;100544.88;5045814;28;20408;-76
2023/09/25 04:56:00;;;;;;;6.53;1.63;;;;;;;16.71;56.34;100547.63;5045793;28;20254;-76
2023/09/25 04:58:25;;;;;;;3.73;1.33;;;;;;;16.59;56.65;100535.06;5046032;28;20036;-76
2023/09/25 05:00:50;;;;;;;4.60;1.30;;;;;;;16.64;56.32;100542.44;5045614;28;20254;-75
2023/09/25 05:03:16;;;;;;;4.05;1.55;;;;;;;16.72;56.07;100536.31;5044954;28;20302;-76
2023/09/25 05:05:41;;;;;;;3.00;1.30;;;;;;;16.74;56.09;100541.56;5045466;28;20048;-76
2023/09/25 05:08:06;;;;;;;2.85;1.23;;;;;;;16.71;55.91;100539.38;5046177;28;20297;-76
2023/09/25 05:10:31;;;;;;;3.83;1.10;;;;;;;16.67;56.02;100539.97;5045860;28;20036;-77
2023/09/25 05:12:57;;;;;;;3.80;1.38;;;;;;;16.60;55.86;100553.22;5045256;28;20666;-77
2023/09/25 05:15:23;;;;;;;3.80;1.20;;;;;;;16.59;56.18;100553.50;5045250;28;20033;-77
2023/09/25 05:17:49;;;;;;;3.38;1.73;;;;;;;16.55;56.37;100553.25;5045536;28;20116;-76
2023/09/25 05:20:18;;;;;;;3.15;1.35;;;;;;;16.51;56.48;100563.19;5045595;28;20108;-76
2023/09/25 05:22:46;;;;;;;3.33;1.45;;;;;;;16.50;56.80;100553.28;5045399;28;20048;-77
2023/09/25 05:25:12;;;;;;;2.83;1.20;;;;;;;16.38;57.05;100543.47;5044299;28;20071;-76
2023/09/25 05:27:39;;;;;;;3.63;1.42;;;;;;;16.47;56.52;100551.94;5045157;28;20045;-76
2023/09/25 05:30:09;;;;;;;7.28;1.95;;;;;;;16.51;56.36;100554.94;5044838;28;20028;-75
2023/09/25 05:32:35;;;;;;;2.50;1.30;;;;;;;16.55;56.28;100561.50;5044972;28;20666;-76
2023/09/25 05:35:01;;;;;;;3.65;1.55;;;;;;;16.62;56.06;100563.97;5044407;28;20517;-77
2023/09/25 05:37:26;;;;;;;2.13;1.05;;;;;;;16.63;56.35;100560.91;5045116;28;20037;-76
2023/09/25 05:39:51;;;;;;;4.03;1.35;;;;;;;16.65;56.20;100563.38;5044279;28;20124;-76
2023/09/25 05:42:16;;;;;;;2.17;1.00;;;;;;;16.67;56.03;100561.97;5044819;28;20040;-76
2023/09/25 05:44:42;;;;;;;6.18;1.35;;;;;;;16.67;55.76;100555.66;5043878;28;20040;-78
2023/09/25 05:47:07;;;;;;;3.47;1.42;;;;;;;16.73;55.88;100553.66;5043570;28;20043;-76
2023/09/25 05:49:32;;;;;;;4.35;1.75;;;;;;;16.72;55.57;100543.78;5045047;28;20120;-77
2023/09/25 05:51:58;;;;;;;2.70;1.07;;;;;;;16.63;55.63;100544.41;5044868;28;20039;-76
2023/09/25 05:54:23;;;;;;;3.20;1.63;;;;;;;16.55;56.18;100547.75;5044585;28;20300;-77
2023/09/25 05:56:49;;;;;;;3.65;1.27;;;;;;;16.49;56.10;100538.72;5044875;28;20261;-77
2023/09/25 05:59:15;;;;;;;4.07;1.40;;;;;;;16.28;56.41;100538.84;5044595;28;20039;-76
2023/09/25 06:01:42;;;;;;;4.35;1.85;;;;;;;16.25;56.69;100522.88;5043932;28;21258;-76
2023/09/25 06:04:08;;;;;;;3.15;1.42;;;;;;;16.28;56.39;100533.34;5043212;28;20120;-77
2023/09/25 06:06:33;;;;;;;2.30;1.20;;;;;;;16.10;56.56;100532.06;5044832;28;20186;-76
2023/09/25 06:08:59;;;;;;;4.13;1.30;;;;;;;16.18;56.63;100528.72;5044057;28;20068;-77
2023/09/25 06:11:24;;;;;;;2.75;1.77;;;;;;;16.36;56.38;100526.41;5043533;28;20265;-78
2023/09/25 06:13:49;;;;;;;5.28;1.30;;;;;;;16.28;56.25;100532.50;5043570;28;20048;-76
2023/09/25 06:16:16;;;;;;;3.40;1.27;;;;;;;16.19;56.61;100535.84;5042704;28;20112;-77
2023/09/25 06:18:41;;;;;;;5.65;1.45;;;;;;;16.29;56.34;100529.47;5043881;28;20833;-75
2023/09/25 06:21:08;;;;;;;2.83;1.00;;;;;;;16.28;56.25;100538.00;5043740;28;20043;-77
2023/09/25 06:23:33;;;;;;;2.13;1.00;;;;;;;16.32;55.89;100539.09;5043827;28;20032;-76
2023/09/25 06:25:59;;;;;;;5.28;1.45;;;;;;;16.34;55.96;100550.63;5043847;28;20482;-78
2023/09/25 06:28:25;;;;;;;5.03;1.30;;;;;;;16.39;55.72;100547.88;5044309;28;20098;-77
2023/09/25 06:30:50;;;;;;;4.00;1.67;;;;;;;16.49;55.68;100549.72;5043852;28;20037;-76
2023/09/25 06:33:15;;;;;;;2.23;1.17;;;;;;;16.51;55.61;100550.25;5043922;28;20044;-75
2023/09/25 06:35:42;;;;;;;2.83;1.10;;;;;;;16.55;55.39;100550.50;5043765;28;21192;-77
2023/09/25 06:38:08;;;;;;;4.95;1.52;;;;;;;16.54;55.57;100555.19;5043598;28;20045;-77
2023/09/25 06:40:34;;;;;;;3.38;1.27;;;;;;;16.57;55.55;100548.28;5043612;28;20037;-77
2023/09/25 06:42:59;;;;;;;4.10;1.48;;;;;;;16.61;55.29;100546.63;5042821;28;20037;-76
2023/09/25 06:45:24;;;;;;;6.05;1.70;;;;;;;16.66;55.11;100543.81;5042549;28;20037;-78
2023/09/25 06:47:50;;;;;;;3.27;1.53;;;;;;;16.64;55.72;100551.53;5042986;28;20028;-77
2023/09/25 06:50:16;;;;;;;3.33;1.67;;;;;;;16.67;54.84;100542.72;5042864;28;20250;-77
2023/09/25 06:52:42;;;;;;;3.40;1.08;;;;;;;16.66;54.74;100541.06;5042251;28;20116;-76
2023/09/25 06:55:07;;;;;;;5.95;1.25;;;;;;;16.62;54.77;100537.22;5041787;28;20119;-76
2023/09/25 06:57:33;;;;;;;4.03;1.63;;;;;;;16.67;54.99;100539.13;5042574;28;20041;-78
2023/09/25 06:59:58;;;;;;;7.33;1.90;;;;;;;16.62;55.00;100553.75;5042344;28;20040;-76
2023/09/25 07:02:25;;;;;;;3.30;1.25;;;;;;;16.67;54.59;100544.63;5042564;28;20246;-76
2023/09/25 07:04:50;;;;;;;3.13;1.52;;;;;;;16.74;54.36;100552.56;5041933;28;20119;-76
2023/09/25 07:07:16;;;;;;;3.33;1.10;;;;;;;16.77;54.29;100554.75;5041950;28;20170;-76
2023/09/25 07:09:42;;;;;;;3.75;1.52;;;;;;;16.83;54.29;100548.09;5041964;28;20025;-78
2023/09/25 07:12:08;;;;;;;4.28;1.38;;;;;;;16.83;54.52;100558.28;5041952;28;20902;-76
2023/09/25 07:14:33;;;;;;;3.08;1.15;;;;;;;16.77;54.29;100550.06;5041204;28;20390;-75
2023/09/25 07:16:59;;;;;;;3.88;1.30;;;;;;;16.92;54.17;100551.06;5042861;28;20498;-84
2023/09/25 07:19:24;;;;;;;7.05;1.60;;;;;;;17.04;53.42;100553.44;5042715;28;21246;-79
2023/09/25 07:21:49;;;;;;;4.00;1.70;;;;;;;17.09;53.58;100558.03;5042854;28;20029;-78
2023/09/25 07:24:15;;;;;;;4.70;2.33;;;;;;;17.02;53.60;100548.19;5042476;28;20301;-85
2023/09/25 07:26:40;;;;;;;4.30;1.87;;;;;;;17.17;53.12;100548.38;5046354;28;20505;-77
2023/09/25 07:29:05;;;;;;;3.80;1.43;;;;;;;17.22;53.08;100551.06;5043247;28;20258;-85
2023/09/25 07:31:30;;;;;;;5.32;1.52;;;;;;;17.30;52.76;100549.63;5044185;28;20751;-86
2023/09/25 07:33:58;;;;;;;7.75;1.98;;;;;;;17.22;52.72;100549.16;5044300;28;20117;-85
2023/09/25 07:36:24;;;;;;;2.92;1.45;;;;;;;17.26;52.61;100557.66;5044409;28;20033;-88
2023/09/25 07:38:49;;;;;;;3.88;1.55;;;;;;;17.30;52.12;100546.88;5044309;28;20036;-86
2023/09/25 07:41:15;;;;;;;3.83;1.63;;;;;;;17.35;52.39;100544.88;5043098;28;20041;-84
2023/09/25 07:43:41;;;;;;;4.97;1.58;;;;;;;17.52;52.11;100540.84;5043093;28;20060;-85
2023/09/25 07:46:07;;;;;;;3.22;1.33;;;;;;;17.44;51.89;100533.22;5043430;28;20124;-85
2023/09/25 07:48:37;;;;;;;2.95;0.88;;;;;;;17.54;51.98;100537.78;5043258;28;20156;-84
2023/09/25 07:51:03;;;;;;;2.67;1.48;;;;;;;17.56;51.55;100532.78;5043882;28;20033;-87
2023/09/25 07:53:29;;;;;;;4.50;1.15;;;;;;;17.64;51.47;100528.56;5043148;28;20108;-88
2023/09/25 07:55:54;;;;;;;5.37;1.33;;;;;;;17.54;51.82;100533.09;5043744;28;20039;-87
2023/09/25 07:58:19;;;;;;;3.63;1.13;;;;;;;17.60;51.67;100531.94;5043816;28;20266;-86
2023/09/25 08:00:47;;;;;;;2.53;0.87;;;;;;;17.69;51.11;100534.03;5043419;28;20731;-85
2023/09/25 08:03:17;;;;;;;4.47;1.65;;;;;;;17.76;50.82;100540.00;5044019;28;20265;-85
2023/09/25 08:05:43;;;;;;;3.22;1.40;;;;;;;17.92;50.89;100539.84;5042486;28;20072;-83
2023/09/25 08:08:11;;;;;;;4.45;1.40;;;;;;;17.94;50.61;100545.88;5043056;28;20037;-88
2023/09/25 08:10:39;;;;;;;6.85;1.25;;;;;;;18.01;50.27;100545.50;5043884;28;20153;-85
2023/09/25 08:13:04;;;;;;;3.80;1.42;;;;;;;18.03;50.33;100543.25;5043876;28;20028;-86
2023/09/25 08:15:30;;;;;;;3.20;1.52;;;;;;;18.16;50.27;100537.03;5042475;28;20112;-86
2023/09/25 08:17:55;;;;;;;7.07;1.73;;;;;;;18.23;50.36;100546.88;5044175;28;20108;-87
2023/09/25 08:20:20;;;;;;;4.30;1.13;;;;;;;18.23;49.73;100536.66;5043018;28;20126;-86
2023/09/25 08:22:47;;;;;;;4.23;1.77;;;;;;;18.15;49.85;100542.81;5043793;28;20270;-86
2023/09/25 08:25:13;;;;;;;3.22;1.55;;;;;;;18.25;50.35;100545.47;5043030;28;20254;-87
2023/09/25 08:27:39;;;;;;;3.92;1.13;;;;;;;18.27;50.06;100543.22;5043568;28;20172;-86
2023/09/25 08:30:05;;;;;;;4.10;1.40;;;;;;;18.36;50.26;100548.06;5043820;28;20259;-86
2023/09/25 08:32:31;;;;;;;2.50;1.00;;;;;;;18.41;50.48;100553.50;5043333;28;20033;-86
2023/09/25 08:34:57;;;;;;;4.38;1.30;;;;;;;18.37;50.13;100558.81;5043162;28;20044;-86
2023/09/25 08:37:22;;;;;;;3.33;1.20;;;;;;;18.46;50.38;100560.91;5043518;28;20037;-86
2023/09/25 08:39:47;;;;;;;4.50;1.43;;;;;;;18.58;50.18;100557.69;5046342;28;20029;-86
2023/09/25 08:42:13;;;;;;;4.03;1.53;;;;;;;18.59;49.16;100559.34;5046502;28;20262;-86
2023/09/25 08:44:39;;;;;;;3.90;1.75;;;;;;;18.58;48.99;100549.41;5046796;28;20510;-86
2023/09/25 08:47:04;;;;;;;2.60;1.42;;;;;;;18.72;49.32;100546.69;5046892;28;20488;-85
2023/09/25 08:49:32;;;;;;;3.15;1.40;;;;;;;18.81;48.71;100544.06;5046280;28;20048;-86
2023/09/25 08:51:59;;;;;;;3.47;1.40;;;;;;;18.84;48.10;100546.22;5045870;28;20341;-84
2023/09/25 08:54:24;;;;;;;3.72;1.30;;;;;;;18.78;47.95;100551.84;5044618;28;20064;-85
2023/09/25 08:56:50;;;;;;;3.13;1.37;;;;;;;18.90;47.72;100558.81;5046438;28;20060;-84
2023/09/25 08:59:15;;;;;;;3.45;1.40;;;;;;;18.99;47.42;100545.97;5046557;28;20253;-83
2023/09/25 09:01:42;;;;;;;4.38;1.42;;;;;;;19.16;47.76;100549.31;5046778;28;20302;-84
2023/09/25 09:04:07;;;;;;;3.83;1.48;;;;;;;19.19;47.76;100544.00;5046392;28;20029;-85
2023/09/25 09:06:33;;;;;;;4.57;1.52;;;;;;;19.28;47.09;100549.66;5046387;28;20041;-85
2023/09/25 09:08:58;;;;;;;4.25;1.48;;;;;;;19.32;47.69;100553.41;5044465;28;20174;-78
2023/09/25 09:11:24;;;;;;;3.38;1.33;;;;;;;19.29;46.94;100547.69;5045210;28;20663;-79
2023/09/25 09:13:49;;;;;;;4.93;1.30;;;;;;;19.32;47.38;100542.34;5044469;28;20169;-79
2023/09/25 09:16:19;;;;;;;3.47;1.38;;;;;;;19.15;45.83;100537.44;5045052;28;20389;-79
2023/09/25 09:18:46;;;;;;;3.67;1.33;;;;;;;19.28;46.07;100549.66;5045205;28;20040;-82
2023/09/25 09:21:27;;;;;;;2.35;0.95;;;;;;;19.40;46.74;100545.56;5045069;28;20908;-73
2023/09/25 09:23:57;;;;;;;3.50;1.23;;;;;;;19.33;46.21;100543.19;5044279;28;20497;-72
2023/09/25 09:26:23;;;;;;;6.22;1.80;;;;;;;19.28;45.58;100540.53;5044800;28;20021;-72
2023/09/25 09:28:49;;;;;;;4.78;1.77;;;;;;;19.33;45.64;100546.78;5044960;28;20041;-72
2023/09/25 09:31:17;;;;;;;3.08;1.13;;;;;;;19.43;45.79;100545.75;5044601;28;20051;-70
2023/09/25 09:33:43;;;;;;;5.95;1.38;;;;;;;19.49;45.26;100538.19;5043986;28;20707;-71
2023/09/25 09:36:13;;;;;;;3.42;1.40;;;;;;;19.59;45.23;100545.44;5044537;28;20045;-71
2023/09/25 09:38:40;;;;;;;4.80;1.63;;;;;;;19.60;44.97;100536.03;5044564;28;20366;-71
2023/09/25 09:41:06;;;;;;;3.58;1.38;;;;;;;19.71;45.49;100531.94;5044327;28;20033;-71
2023/09/25 09:43:32;;;;;;;3.70;1.33;;;;;;;19.75;45.06;100532.13;5043941;28;20225;-70
2023/09/25 09:45:59;;;;;;;3.35;1.20;;;;;;;19.86;45.71;100537.44;5044412;28;20121;-71
2023/09/25 09:48:27;;;;;;;2.42;0.75;;;;;;;19.97;45.63;100532.53;5044512;28;20132;-72
2023/09/25 09:50:59;;;;;;;3.35;1.30;;;;;;;19.99;45.01;100530.25;5044388;28;20795;-73
2023/09/25 09:53:26;;;;;;;3.10;1.00;;;;;;;19.96;44.09;100528.94;5043936;28;20045;-72
2023/09/25 09:55:52;;;;;;;3.08;0.93;;;;;;;19.86;43.79;100527.19;5044377;28;20453;-71
2023/09/25 09:58:18;;;;;;;1.70;0.68;;;;;;;19.93;44.14;100533.13;5043957;28;20028;-70
2023/09/25 10:00:43;;;;;;;2.17;0.82;;;;;;;19.78;43.01;100533.47;5044526;28;20083;-71
2023/09/25 10:03:09;;;;;;;3.03;1.20;;;;;;;19.74;43.24;100522.19;5044171;28;20032;-72
2023/09/25 10:05:51;;;;;;;3.92;1.25;;;;;;;19.85;43.60;100519.22;5043162;28;20285;-73
2023/09/25 10:08:17;;;;;;;2.53;0.98;;;;;;;19.91;43.32;100518.78;5043744;28;20494;-71
2023/09/25 10:10:48;;;;;;;2.33;0.95;;;;;;;20.11;43.81;100516.75;5043838;28;20036;-73
2023/09/25 10:13:17;;;;;;;9.80;1.27;;;;;;;20.22;43.42;100500.69;5043750;28;20029;-73
2023/09/25 10:15:59;;;;;;;3.67;1.17;;;;;;;20.29;43.20;100511.34;5043383;28;20041;-72
2023/09/25 10:18:28;;;;;;;3.63;1.05;;;;;;;20.37;43.53;100505.06;5043689;28;20040;-71
2023/09/25 10:21:09;;;;;;;1.48;0.60;;;;;;;20.52;43.33;100514.94;5043852;28;20071;-72
2023/09/25 10:23:35;;;;;;;3.25;0.90;;;;;;;20.42;42.77;100504.94;5043428;28;20367;-72
2023/09/25 10:26:02;;;;;;;2.40;1.15;;;;;;;20.62;43.05;100511.13;5043548;28;20037;-71
2023/09/25 10:28:36;;;;;;;4.03;0.95;;;;;;;20.68;42.81;100506.28;5043202;28;21008;-71
2023/09/25 10:31:03;;;;;;;2.45;1.00;;;;;;;20.74;42.52;100507.78;5043364;28;20113;-71
2023/09/25 10:33:33;;;;;;;3.88;1.00;;;;;;;20.83;42.86;100502.28;5042831;28;20493;-71
2023/09/25 10:36:05;;;;;;;2.72;0.90;;;;;;;20.77;41.30;100512.66;5043030;28;20045;-71
2023/09/25 10:38:36;;;;;;;5.25;0.93;;;;;;;20.74;41.52;100509.72;5043507;28;20056;-71
2023/09/25 10:41:09;;;;;;;3.35;1.35;;;;;;;20.83;41.63;100501.44;5042992;28;20108;-73
2023/09/25 10:43:35;;;;;;;3.60;1.42;;;;;;;20.97;41.96;100504.97;5043000;28;20047;-73
2023/09/25 10:46:01;;;;;;;2.90;0.85;;;;;;;21.05;41.68;100503.38;5043080;28;20277;-72
2023/09/25 10:48:27;;;;;;;6.25;1.35;;;;;;;21.07;41.62;100505.88;5042821;28;20068;-72
2023/09/25 10:50:54;;;;;;;2.97;0.93;;;;;;;21.15;41.08;100493.19;5042988;28;20695;-71
2023/09/25 10:53:21;;;;;;;4.07;1.35;;;;;;;21.18;41.57;100504.44;5043281;28;20029;-71
2023/09/25 10:55:47;;;;;;;5.13;1.30;;;;;;;20.99;40.31;100493.59;5042869;28;20119;-72
2023/09/25 10:58:14;;;;;;;2.47;1.00;;;;;;;20.87;39.71;100486.66;5043077;28;20131;-72
2023/09/25 11:00:41;;;;;;;5.75;0.88;;;;;;;21.08;40.63;100485.31;5042355;28;20031;-72
2023/09/25 11:03:07;;;;;;;2.80;1.00;;;;;;;21.18;40.87;100479.50;5042948;28;20407;-72
2023/09/25 11:05:37;;;;;;;4.50;1.45;;;;;;;21.36;40.81;100482.31;5042555;28;20053;-72
2023/09/25 11:08:04;;;;;;;3.92;1.42;;;;;;;21.52;40.85;100471.59;5043086;28;20036;-70
2023/09/25 11:10:32;;;;;;;5.38;1.02;;;;;;;21.57;40.00;100474.25;5042659;28;20029;-71
2023/09/25 11:12:57;;;;;;;2.03;0.93;;;;;;;21.62;40.88;100464.13;5043281;28;20032;-71
2023/09/25 11:15:25;;;;;;;4.97;1.33;;;;;;;21.78;42.16;100473.59;5042410;28;20044;-70
2023/09/25 11:17:51;;;;;;;4.13;1.45;;;;;;;21.91;41.46;100471.88;5043009;28;20052;-71
2023/09/25 11:20:19;;;;;;;2.10;1.00;;;;;;;22.00;41.15;100474.66;5041907;28;20025;-73